Time;durP1;ratioP1;P1;durP2;ratioP2;P2;SDS_P1;SDS_P2;PMS_P1;PMS_P2;Temp;Humidity;BMP_temperature;BMP_pressure;BME280_temperature;BME280_humidity;BME280_pressure;Samples;Min_cycle;Max_cycle;Signal;HPM_P1;HPM_P2
2022/03/22 00:01:58;;;;;;;16.48;7.35;;;;;;;0.50;76.73;102071.69;1756041;81;21031;-69
2022/03/22 00:04:27;;;;;;;16.82;7.25;;;;;;;0.45;76.82;102075.84;1756300;81;21105;-67
2022/03/22 00:06:54;;;;;;;17.27;7.30;;;;;;;0.34;76.83;102074.56;1756329;81;21062;-68
2022/03/22 00:09:21;;;;;;;14.90;6.20;;;;;;;0.23;77.12;102068.11;1726716;81;21241;-68
2022/03/22 00:11:50;;;;;;;21.23;7.00;;;;;;;0.15;77.64;102071.31;1756081;81;21281;-68
2022/03/22 00:14:17;;;;;;;18.07;6.50;;;;;;;0.11;77.91;102073.31;1756251;81;21581;-68
2022/03/22 00:16:44;;;;;;;21.35;6.87;;;;;;;0.06;78.32;102070.97;1749343;81;21058;-68
2022/03/22 00:19:11;;;;;;;16.77;7.05;;;;;;;0.02;78.60;102071.67;1743324;82;21055;-69
2022/03/22 00:21:38;;;;;;;22.37;7.45;;;;;;;-0.04;78.83;102068.46;1743153;82;21038;-68
2022/03/22 00:24:06;;;;;;;17.87;6.83;;;;;;;-0.10;79.12;102063.04;1743279;82;21535;-69
2022/03/22 00:26:33;;;;;;;17.07;7.37;;;;;;;-0.16;79.36;102058.04;1743305;82;21546;-68
2022/03/22 00:29:01;;;;;;;17.92;7.22;;;;;;;-0.19;79.69;102060.52;1742747;82;21526;-69
2022/03/22 00:31:30;;;;;;;18.75;7.05;;;;;;;-0.26;79.88;102053.81;1742606;82;21115;-69
2022/03/22 00:33:57;;;;;;;17.23;7.28;;;;;;;-0.32;80.08;102052.30;1742754;82;21027;-68
2022/03/22 00:36:27;;;;;;;20.30;7.15;;;;;;;-0.33;80.58;102049.23;1742603;82;22102;-68
2022/03/22 00:38:54;;;;;;;16.23;6.92;;;;;;;-0.31;81.16;102059.23;1742769;82;21524;-68
2022/03/22 00:41:21;;;;;;;16.42;6.70;;;;;;;-0.35;81.41;102056.05;1742692;82;21603;-69
2022/03/22 00:43:47;;;;;;;16.65;7.10;;;;;;;-0.37;81.97;102053.81;1742812;82;21101;-68
2022/03/22 00:46:14;;;;;;;19.17;6.95;;;;;;;-0.40;82.39;102044.64;1742651;82;21019;-69
2022/03/22 00:48:47;;;;;;;21.40;7.30;;;;;;;-0.45;83.27;102047.47;1742735;82;21286;-69
2022/03/22 00:51:13;;;;;;;18.25;6.35;;;;;;;-0.46;84.22;102040.51;1704895;83;21022;-69
2022/03/22 00:53:41;;;;;;;20.35;7.53;;;;;;;-0.45;84.33;102048.77;1704905;84;21050;-68
2022/03/22 00:56:08;;;;;;;21.02;7.70;;;;;;;-0.46;84.47;102043.09;1705021;82;21495;-68
2022/03/22 00:58:35;;;;;;;22.55;7.17;;;;;;;-0.44;85.32;102040.16;1704921;84;21069;-69
2022/03/22 01:01:03;;;;;;;29.87;10.03;;;;;;;-0.44;85.75;102050.52;1704786;84;21060;-68
2022/03/22 01:03:31;;;;;;;31.23;9.83;;;;;;;-0.44;86.41;102045.34;1704755;83;21132;-68
2022/03/22 01:06:01;;;;;;;20.90;6.87;;;;;;;-0.40;87.26;102049.81;1704722;84;21105;-68
2022/03/22 01:08:31;;;;;;;22.30;7.12;;;;;;;-0.37;87.74;102042.58;1704572;84;21709;-68
2022/03/22 01:10:57;;;;;;;18.60;7.35;;;;;;;-0.35;88.17;102040.52;1704757;84;21052;-71
2022/03/22 01:13:27;;;;;;;18.23;7.05;;;;;;;-0.31;88.22;102046.70;1704784;84;21109;-68
2022/03/22 01:15:53;;;;;;;16.07;6.65;;;;;;;-0.38;88.12;102040.83;1704984;83;21050;-69
2022/03/22 01:18:25;;;;;;;52.78;16.77;;;;;;;-0.42;88.28;102047.58;1712557;83;21056;-67
2022/03/22 01:20:49;;;;;;;33.70;10.10;;;;;;;-0.47;88.44;102043.94;1712398;83;21061;-68
2022/03/22 01:23:21;;;;;;;15.23;6.90;;;;;;;-0.49;88.80;102053.34;1712732;83;21041;-69
2022/03/22 01:25:48;;;;;;;12.93;6.42;;;;;;;-0.49;89.29;102049.46;1712759;83;21827;-69
2022/03/22 01:28:14;;;;;;;14.68;6.10;;;;;;;-0.49;89.84;102052.05;1712601;83;21057;-69
2022/03/22 01:30:41;;;;;;;14.10;5.97;;;;;;;-0.49;89.84;102049.46;1712689;83;21069;-68
2022/03/22 01:33:08;;;;;;;12.13;5.70;;;;;;;-0.51;89.71;102051.11;1712833;83;21133;-69
2022/03/22 01:35:36;;;;;;;13.90;6.00;;;;;;;-0.50;89.69;102054.19;1712560;83;22219;-68
2022/03/22 01:38:03;;;;;;;14.35;6.37;;;;;;;-0.51;89.47;102048.52;1712886;83;21234;-67
2022/03/22 01:40:31;;;;;;;17.52;7.08;;;;;;;-0.55;89.33;102055.69;1712697;83;21026;-67
2022/03/22 01:42:59;;;;;;;18.30;7.12;;;;;;;-0.61;89.24;102055.47;1712578;83;21076;-67
2022/03/22 01:45:26;;;;;;;18.50;7.17;;;;;;;-0.62;89.13;102049.80;1712892;83;21014;-68
2022/03/22 01:47:55;;;;;;;16.05;6.33;;;;;;;-0.68;89.08;102052.62;1712772;83;21125;-69
2022/03/22 01:50:22;;;;;;;13.62;6.22;;;;;;;-0.73;89.01;102048.98;1733037;82;21940;-68
2022/03/22 01:52:50;;;;;;;18.20;6.60;;;;;;;-0.77;89.26;102050.96;1743033;82;21098;-69
2022/03/22 01:55:19;;;;;;;15.98;7.00;;;;;;;-0.82;89.25;102051.20;1743102;80;21083;-68
2022/03/22 01:57:47;;;;;;;16.50;7.00;;;;;;;-0.88;89.29;102050.94;1743045;82;21539;-68
2022/03/22 02:00:19;;;;;;;24.43;8.55;;;;;;;-0.92;89.63;102060.69;1743730;82;21020;-68
2022/03/22 02:05:51;;;;;;;34.85;12.58;;;;;;;-1.03;89.85;102056.80;1743012;82;21016;-68
2022/03/22 02:08:20;;;;;;;18.45;7.47;;;;;;;-1.08;90.24;102058.78;1743433;82;21527;-68
2022/03/22 02:10:48;;;;;;;20.10;6.90;;;;;;;-1.12;90.49;102058.17;1743674;82;21046;-68
2022/03/22 02:13:15;;;;;;;26.70;9.03;;;;;;;-1.13;91.00;102055.13;1743268;82;21078;-69
2022/03/22 02:15:44;;;;;;;18.90;7.40;;;;;;;-1.15;91.62;102055.47;1743153;82;21288;-68
2022/03/22 02:18:12;;;;;;;;;;;;;;;-1.16;92.04;102052.39;1722388;82;21106;-69
2022/03/22 02:20:39;;;;;;;15.10;6.45;;;;;;;-1.21;91.75;102055.20;1716232;83;20187;-68
2022/03/22 02:23:15;;;;;;;19.27;6.92;;;;;;;-1.28;91.63;102054.48;1716230;82;21068;-68
2022/03/22 02:25:42;;;;;;;14.00;6.72;;;;;;;-1.33;91.62;102053.41;1716245;83;21110;-68
2022/03/22 02:28:11;;;;;;;18.30;7.67;;;;;;;-1.38;91.72;102060.06;1716162;83;21153;-68
2022/03/22 02:30:38;;;;;;;23.62;6.37;;;;;;;-1.41;92.01;102068.98;1716030;83;21118;-67
2022/03/22 02:33:06;;;;;;;20.30;7.12;;;;;;;-1.46;92.28;102065.33;1716287;83;21012;-68
2022/03/22 02:35:34;;;;;;;15.05;6.97;;;;;;;-1.48;92.77;102069.12;1716109;82;21051;-67
2022/03/22 02:38:00;;;;;;;16.45;6.90;;;;;;;-1.51;93.37;102064.72;1716319;83;21031;-68
2022/03/22 02:40:27;;;;;;;15.35;6.53;;;;;;;-1.53;93.67;102067.64;1716008;83;21301;-67
2022/03/22 02:42:56;;;;;;;21.48;7.25;;;;;;;-1.57;93.72;102070.90;1715989;82;21020;-67
2022/03/22 02:45:23;;;;;;;13.78;6.85;;;;;;;-1.58;94.00;102068.27;1716005;83;21110;-68
2022/03/22 02:47:51;;;;;;;18.10;7.42;;;;;;;-1.59;94.90;102068.66;1715812;83;21048;-68
2022/03/22 02:50:18;;;;;;;13.70;6.65;;;;;;;-1.59;95.27;102069.94;1719333;83;20989;-67
2022/03/22 02:52:48;;;;;;;13.93;6.50;;;;;;;-1.59;95.21;102071.23;1720646;82;21275;-68
2022/03/22 02:55:15;;;;;;;22.65;7.58;;;;;;;-1.61;95.17;102066.83;1685821;84;21128;-69
2022/03/22 02:57:43;;;;;;;17.20;7.47;;;;;;;-1.64;95.13;102070.16;1685775;85;21029;-68
2022/03/22 03:00:12;;;;;;;23.25;8.18;;;;;;;-1.67;95.29;102068.75;1686004;85;21053;-68
2022/03/22 03:02:49;;;;;;;20.68;7.37;;;;;;;-1.69;95.47;102075.13;1685610;85;21076;-67
2022/03/22 03:05:17;;;;;;;17.37;7.47;;;;;;;-1.71;95.48;102068.13;1685148;85;21159;-67
2022/03/22 03:07:44;;;;;;;27.30;7.83;;;;;;;-1.75;95.45;102069.70;1720603;83;21633;-68
2022/03/22 03:10:12;;;;;;;244.13;67.42;;;;;;;-1.81;95.77;102071.14;1685852;84;22114;-69
2022/03/22 03:12:40;;;;;;;37.13;10.32;;;;;;;-1.80;96.17;102073.77;1720639;82;21082;-67
2022/03/22 03:15:08;;;;;;;21.42;8.40;;;;;;;-1.75;96.59;102069.70;1720978;83;21609;-69
2022/03/22 03:17:36;;;;;;;19.52;8.50;;;;;;;-1.70;97.52;102078.95;1734541;82;21117;-69
2022/03/22 03:20:05;;;;;;;20.88;7.33;;;;;;;-1.68;98.12;102076.00;1750970;81;21037;-69
2022/03/22 03:22:33;;;;;;;18.10;7.80;;;;;;;-1.70;98.48;102083.70;1751088;82;21049;-68
2022/03/22 03:24:59;;;;;;;18.65;6.78;;;;;;;-1.67;99.05;102084.66;1715234;83;21038;-67
2022/03/22 03:27:26;;;;;;;15.72;6.90;;;;;;;-1.70;99.29;102083.70;1715201;83;21105;-69
2022/03/22 03:29:53;;;;;;;34.05;10.13;;;;;;;-1.74;99.30;102084.80;1715056;83;21098;-68
2022/03/22 03:32:19;;;;;;;66.82;17.77;;;;;;;-1.76;99.26;102092.88;1688026;85;21061;-69
2022/03/22 03:34:49;;;;;;;109.15;26.62;;;;;;;-1.78;99.28;102090.63;1691164;84;21052;-68
2022/03/22 03:37:17;;;;;;;52.98;14.80;;;;;;;-1.88;99.71;102087.17;1689543;84;21109;-67
2022/03/22 03:39:44;;;;;;;39.90;12.98;;;;;;;-1.88;100.00;102093.63;1691271;84;21052;-68
2022/03/22 03:42:11;;;;;;;32.85;9.50;;;;;;;-1.86;100.00;102089.39;1689517;84;21151;-67
2022/03/22 03:47:23;;;;;;;23.05;8.10;;;;;;;-1.78;100.00;102094.09;1689643;84;21140;-68
2022/03/22 03:50:01;;;;;;;21.15;7.87;;;;;;;-1.75;100.00;102097.22;1691267;84;21095;-68
2022/03/22 03:52:31;;;;;;;24.80;7.45;;;;;;;-1.82;100.00;102097.34;1672166;85;21095;-67
2022/03/22 03:54:59;;;;;;;18.40;7.20;;;;;;;-1.77;100.00;102093.67;1671843;85;21203;-68
2022/03/22 03:57:26;;;;;;;20.10;7.72;;;;;;;-1.78;100.00;102091.92;1672780;85;21058;-68
2022/03/22 03:59:55;;;;;;;17.60;7.15;;;;;;;-1.82;100.00;102106.38;1672712;85;21131;-67
2022/03/22 04:02:21;;;;;;;23.65;7.55;;;;;;;-1.82;100.00;102106.80;1673625;85;21039;-66
2022/03/22 04:04:52;;;;;;;17.17;7.58;;;;;;;-1.80;100.00;102107.34;1673843;85;21070;-67
2022/03/22 04:07:24;;;;;;;19.15;6.80;;;;;;;-1.84;100.00;102105.84;1673472;85;22317;-71
2022/03/22 04:09:50;;;;;;;19.80;8.38;;;;;;;-1.90;100.00;102100.88;1672169;85;21071;-68
2022/03/22 04:12:19;;;;;;;23.00;8.40;;;;;;;-1.86;100.00;102104.88;1671884;85;22150;-67
2022/03/22 04:14:52;;;;;;;18.37;7.60;;;;;;;-1.85;100.00;102101.50;1672006;85;21195;-68
2022/03/22 04:17:19;;;;;;;19.45;7.97;;;;;;;-1.80;100.00;102105.17;1671938;85;21549;-68
2022/03/22 04:19:46;;;;;;;22.62;8.05;;;;;;;-1.82;100.00;102111.97;1705080;84;21124;-68
2022/03/22 04:22:16;;;;;;;22.17;8.28;;;;;;;-1.80;100.00;102116.80;1704934;83;21075;-68
2022/03/22 04:24:43;;;;;;;17.32;7.28;;;;;;;-1.76;100.00;102129.92;1705010;83;21131;-69
2022/03/22 04:32:44;;;;;;;22.30;8.00;;;;;;;-1.70;100.00;102131.91;1705177;84;21203;-70
2022/03/22 04:35:19;;;;;;;22.17;8.58;;;;;;;-1.11;100.00;102125.86;1705147;84;21047;-69
2022/03/22 04:37:47;;;;;;;19.20;7.28;;;;;;;-0.40;100.00;102121.42;1704856;84;21091;-68
2022/03/22 04:40:18;;;;;;;22.17;8.35;;;;;;;0.36;100.00;102133.83;1705376;84;21029;-69
2022/03/22 04:42:42;;;;;;;29.20;8.83;;;;;;;1.05;100.00;102133.25;1704440;84;21173;-69
2022/03/22 04:45:10;;;;;;;23.00;8.40;;;;;;;1.65;97.66;102133.03;1705056;84;21184;-68
2022/03/22 04:47:36;;;;;;;18.70;8.40;;;;;;;2.30;95.84;102130.27;1704832;84;21067;-68
2022/03/22 04:50:07;;;;;;;17.60;6.80;;;;;;;3.01;91.86;102126.09;1725751;82;21083;-69
2022/03/22 04:58:07;;;;;;;22.45;8.43;;;;;;;4.69;81.22;102139.88;1742785;82;21187;-70
2022/03/22 05:00:34;;;;;;;16.90;8.35;;;;;;;5.07;78.07;102127.55;1742614;82;20986;-70
2022/03/22 05:03:03;;;;;;;17.80;8.73;;;;;;;5.34;76.22;102130.19;1742599;82;21021;-68
2022/03/22 05:08:15;;;;;;;17.20;7.60;;;;;;;6.42;72.17;102125.66;1710700;83;21136;-69
2022/03/22 05:10:43;;;;;;;17.80;8.10;;;;;;;6.94;68.93;102126.20;1673641;85;21259;-68
2022/03/22 05:13:10;;;;;;;21.62;10.55;;;;;;;7.45;67.52;102134.95;1742735;81;21069;-68
2022/03/22 05:15:39;;;;;;;21.02;8.75;;;;;;;7.97;65.48;102140.56;1742527;82;21585;-69
2022/03/22 05:18:05;;;;;;;17.05;7.92;;;;;;;8.35;63.50;102134.63;1742527;82;21569;-68
2022/03/22 05:20:32;;;;;;;15.08;7.03;;;;;;;8.94;62.13;102135.27;1742812;82;21044;-69
2022/03/22 05:23:00;;;;;;;16.07;7.37;;;;;;;9.59;59.69;102133.57;1742572;82;21220;-70
2022/03/22 05:25:31;;;;;;;18.32;7.67;;;;;;;10.03;57.61;102139.60;1742702;82;20981;-68
2022/03/22 05:28:00;;;;;;;17.02;7.75;;;;;;;10.50;56.57;102138.60;1742884;82;21038;-68
2022/03/22 05:30:26;;;;;;;18.17;8.05;;;;;;;11.02;54.64;102139.63;1742599;82;21021;-68
2022/03/22 05:32:53;;;;;;;16.42;8.45;;;;;;;11.46;52.42;102134.45;1743216;82;21073;-68
2022/03/22 05:35:23;;;;;;;18.02;8.70;;;;;;;11.94;50.06;102142.82;1742713;82;21232;-68
2022/03/22 05:37:51;;;;;;;22.02;9.45;;;;;;;12.33;47.84;102150.28;1742533;82;21074;-68
2022/03/22 05:40:18;;;;;;;21.35;10.25;;;;;;;12.70;46.72;102148.07;1742745;82;21026;-69
2022/03/22 05:42:45;;;;;;;21.82;11.78;;;;;;;13.09;44.85;102148.39;1742546;82;21116;-68
2022/03/22 05:45:12;;;;;;;30.72;16.37;;;;;;;13.28;44.13;102153.42;1742816;82;21014;-68
2022/03/22 05:47:40;;;;;;;30.82;14.80;;;;;;;13.49;43.39;102150.88;1742822;82;21211;-68
2022/03/22 05:50:08;;;;;;;28.70;16.50;;;;;;;13.73;42.69;102146.91;1742865;82;21090;-70
2022/03/22 05:52:34;;;;;;;37.70;18.85;;;;;;;13.98;41.56;102148.66;1742583;82;21132;-70
2022/03/22 05:55:01;;;;;;;47.17;21.68;;;;;;;14.32;40.67;102148.00;1742764;80;21035;-68
2022/03/22 05:57:29;;;;;;;49.27;27.07;;;;;;;14.60;39.59;102156.27;1742700;82;21043;-69
2022/03/22 05:59:56;;;;;;;41.80;20.75;;;;;;;14.74;38.92;102158.16;1742661;82;21153;-69
2022/03/22 06:02:22;;;;;;;30.45;17.00;;;;;;;14.90;38.08;102154.25;1742577;82;21089;-68
2022/03/22 06:04:49;;;;;;;32.73;17.35;;;;;;;15.18;37.48;102157.59;1742697;82;21096;-69
2022/03/22 06:07:19;;;;;;;30.25;15.83;;;;;;;15.47;36.51;102155.55;1742652;82;21100;-68
2022/03/22 06:09:44;;;;;;;32.65;14.10;;;;;;;15.74;35.72;102159.79;1741996;82;21070;-68
2022/03/22 06:12:14;;;;;;;27.20;12.53;;;;;;;15.92;34.20;102170.39;1742372;82;21053;-70
2022/03/22 06:14:42;;;;;;;24.43;11.55;;;;;;;15.85;34.20;102172.34;1742653;82;21053;-68
2022/03/22 06:17:08;;;;;;;24.57;12.13;;;;;;;16.03;34.42;102170.94;1742432;82;21040;-68
2022/03/22 06:19:35;;;;;;;28.17;11.80;;;;;;;16.28;33.10;102174.26;1749511;82;21077;-70
2022/03/22 06:22:04;;;;;;;30.05;13.80;;;;;;;16.40;33.02;102173.89;1750630;82;21010;-69
2022/03/22 06:24:30;;;;;;;24.90;11.33;;;;;;;16.53;32.48;102177.08;1750479;82;21777;-68
2022/03/22 06:26:57;;;;;;;23.95;10.58;;;;;;;16.38;32.10;102186.83;1750271;82;21529;-68
2022/03/22 06:29:24;;;;;;;28.00;13.08;;;;;;;16.35;31.80;102189.12;1750583;82;21550;-67
2022/03/22 06:31:52;;;;;;;20.75;9.98;;;;;;;16.40;32.31;102179.21;1750494;82;21380;-70
2022/03/22 06:34:19;;;;;;;31.20;14.73;;;;;;;16.54;32.19;102184.12;1750174;82;22206;-68
2022/03/22 06:36:46;;;;;;;30.32;12.82;;;;;;;16.74;31.56;102187.08;1750120;82;22154;-69
2022/03/22 06:39:12;;;;;;;31.57;12.90;;;;;;;16.85;31.19;102185.46;1750192;82;21525;-69
2022/03/22 06:41:39;;;;;;;21.73;10.55;;;;;;;16.91;31.60;102188.38;1750143;82;21580;-69
2022/03/22 06:44:06;;;;;;;19.02;10.08;;;;;;;17.18;31.52;102187.98;1750459;82;21052;-67
2022/03/22 06:46:33;;;;;;;22.73;10.48;;;;;;;17.66;31.06;102191.28;1721103;82;21663;-68
2022/03/22 06:48:59;;;;;;;19.90;10.60;;;;;;;18.10;30.21;102194.23;1747729;82;22054;-68
2022/03/22 06:51:26;;;;;;;23.15;10.53;;;;;;;18.20;29.40;102198.32;1720413;83;22054;-68
2022/03/22 06:53:54;;;;;;;22.13;11.05;;;;;;;18.22;29.67;102196.47;1720538;83;21000;-69
2022/03/22 06:56:22;;;;;;;24.98;10.68;;;;;;;18.68;29.11;102193.00;1720294;82;21134;-69
2022/03/22 06:58:51;;;;;;;19.40;10.03;;;;;;;18.66;28.63;102199.28;1720414;83;21588;-69
2022/03/22 07:01:17;;;;;;;23.05;11.43;;;;;;;18.73;28.89;102194.59;1720506;83;21237;-68
2022/03/22 07:03:44;;;;;;;23.83;10.93;;;;;;;18.98;28.28;102197.20;1720668;83;20992;-69
2022/03/22 07:06:12;;;;;;;22.07;11.45;;;;;;;19.26;28.18;102193.42;1720312;82;21083;-70
2022/03/22 07:08:39;;;;;;;28.98;12.78;;;;;;;19.71;27.78;102204.48;1720234;82;21054;-68
2022/03/22 07:13:53;;;;;;;24.82;11.85;;;;;;;19.48;26.97;102199.59;1720517;82;21144;-70
2022/03/22 07:16:20;;;;;;;26.25;12.10;;;;;;;19.58;27.12;102200.11;1720480;83;21058;-68
2022/03/22 07:18:48;;;;;;;28.83;12.85;;;;;;;19.80;26.78;102200.08;1717492;82;22129;-69
2022/03/22 07:21:14;;;;;;;26.27;12.03;;;;;;;20.21;26.27;102205.44;1712745;83;22010;-70
2022/03/22 07:23:41;;;;;;;24.43;11.65;;;;;;;20.37;25.93;102206.09;1712735;83;21635;-67
2022/03/22 07:26:07;;;;;;;27.20;11.43;;;;;;;20.64;25.67;102198.64;1712737;83;21136;-69
2022/03/22 07:28:35;;;;;;;31.93;12.58;;;;;;;20.98;25.52;102196.58;1712771;83;21100;-68
2022/03/22 07:31:03;;;;;;;25.23;11.85;;;;;;;21.43;24.79;102189.06;1712927;83;21029;-69
2022/03/22 07:33:30;;;;;;;31.50;13.65;;;;;;;21.58;23.93;102190.50;1712673;83;21107;-68
2022/03/22 07:35:57;;;;;;;34.13;13.65;;;;;;;21.41;23.77;102189.13;1712905;82;21622;-68
2022/03/22 07:38:25;;;;;;;30.57;13.75;;;;;;;21.22;24.10;102185.61;1713094;83;22052;-69
2022/03/22 07:40:51;;;;;;;36.28;14.83;;;;;;;21.35;24.15;102194.78;1712918;82;21079;-69
2022/03/22 07:43:18;;;;;;;24.57;12.30;;;;;;;21.45;23.97;102194.73;1712994;82;21059;-67
2022/03/22 07:45:45;;;;;;;28.60;12.28;;;;;;;21.67;23.57;102192.30;1713207;82;21108;-69
2022/03/22 07:48:13;;;;;;;25.30;12.25;;;;;;;22.03;23.45;102194.04;1713097;82;21064;-69
2022/03/22 07:53:25;;;;;;;25.82;11.73;;;;;;;22.44;22.36;102191.00;1742877;82;21038;-69
2022/03/22 07:55:52;;;;;;;25.32;11.80;;;;;;;22.49;22.10;102194.29;1742647;81;21081;-68
2022/03/22 07:58:18;;;;;;;28.67;12.60;;;;;;;22.59;22.33;102190.14;1742688;82;21050;-69
2022/03/22 08:00:47;;;;;;;24.82;11.78;;;;;;;22.76;22.03;102193.25;1742543;82;21577;-69
2022/03/22 08:03:18;;;;;;;25.25;12.23;;;;;;;22.56;21.70;102193.00;1742456;82;21132;-71
2022/03/22 08:05:46;;;;;;;23.47;10.85;;;;;;;22.58;22.00;102192.45;1742632;82;21676;-68
2022/03/22 08:08:15;;;;;;;21.20;8.43;;;;;;;22.56;21.31;102191.17;1742617;82;21085;-68
2022/03/22 08:10:44;;;;;;;24.85;9.98;;;;;;;22.47;21.27;102195.70;1742697;82;21100;-68
2022/03/22 08:13:10;;;;;;;21.07;9.05;;;;;;;22.48;20.95;102183.17;1706904;83;22304;-69
2022/03/22 08:15:36;;;;;;;17.15;8.23;;;;;;;22.45;21.15;102188.69;1706824;84;21151;-69
2022/03/22 08:18:03;;;;;;;17.62;7.78;;;;;;;22.75;21.28;102182.09;1706880;84;21561;-68
2022/03/22 08:20:32;;;;;;;18.32;8.23;;;;;;;23.17;20.75;102171.27;1714254;83;21533;-70
2022/03/22 08:23:04;;;;;;;15.88;6.78;;;;;;;23.64;20.11;102185.92;1714590;83;21026;-71
2022/03/22 08:25:38;;;;;;;20.40;7.95;;;;;;;23.78;20.16;102176.20;1714507;83;21053;-70
2022/03/22 08:28:09;;;;;;;19.02;7.97;;;;;;;23.55;20.23;102185.13;1714509;83;21505;-69
2022/03/22 08:30:38;;;;;;;23.00;8.33;;;;;;;23.65;20.39;102186.82;1714423;83;21058;-69
2022/03/22 08:33:07;;;;;;;25.08;9.15;;;;;;;23.66;20.01;102179.98;1714509;83;21403;-70
2022/03/22 08:35:42;;;;;;;16.82;7.55;;;;;;;23.33;20.08;102175.24;1750553;82;21056;-69
2022/03/22 08:38:10;;;;;;;20.05;8.43;;;;;;;23.21;20.45;102172.34;1749297;82;21580;-69
2022/03/22 08:40:39;;;;;;;18.92;7.90;;;;;;;23.58;20.41;102179.59;1750617;82;21338;-69
2022/03/22 08:43:07;;;;;;;19.15;8.03;;;;;;;23.81;20.19;102174.66;1750593;82;21522;-68
2022/03/22 08:45:35;;;;;;;15.50;7.45;;;;;;;23.75;19.68;102171.88;1714429;83;21060;-68
2022/03/22 08:48:09;;;;;;;24.05;10.20;;;;;;;23.57;20.18;102175.64;1750515;82;21053;-70
2022/03/22 08:50:34;;;;;;;24.30;9.75;;;;;;;23.74;19.81;102164.78;1727958;82;21515;-69
2022/03/22 08:53:02;;;;;;;24.15;9.45;;;;;;;23.62;20.18;102171.70;1720784;83;21141;-69
2022/03/22 08:55:29;;;;;;;21.17;10.05;;;;;;;23.74;19.79;102162.51;1720674;82;21051;-70
2022/03/22 08:57:56;;;;;;;24.35;11.10;;;;;;;23.54;19.71;102169.97;1720651;82;21074;-68
2022/03/22 09:00:24;;;;;;;26.27;11.00;;;;;;;23.45;19.86;102165.13;1720981;83;21051;-69
2022/03/22 09:02:51;;;;;;;24.02;11.30;;;;;;;23.49;20.05;102165.34;1720684;83;21611;-70
2022/03/22 09:08:05;;;;;;;29.02;12.30;;;;;;;23.76;19.82;102159.28;1720760;83;21082;-68
2022/03/22 09:10:34;;;;;;;22.30;10.15;;;;;;;23.98;19.62;102160.20;1720454;83;21008;-69
2022/03/22 09:13:01;;;;;;;29.52;11.10;;;;;;;23.83;19.59;102159.30;1720440;82;21086;-70
2022/03/22 09:15:29;;;;;;;24.27;10.60;;;;;;;23.70;19.56;102154.27;1720654;83;21054;-69
2022/03/22 09:18:00;;;;;;;20.70;9.15;;;;;;;23.79;19.66;102156.43;1720846;83;21217;-70
2022/03/22 09:20:32;;;;;;;24.30;10.35;;;;;;;23.86;19.45;102157.30;1714576;82;21071;-69
2022/03/22 09:23:02;;;;;;;23.45;10.85;;;;;;;23.92;19.42;102154.70;1713062;82;21130;-68
2022/03/22 09:25:29;;;;;;;27.00;11.83;;;;;;;23.88;18.86;102155.87;1713086;82;21049;-72
2022/03/22 09:27:56;;;;;;;27.40;13.30;;;;;;;23.89;18.76;102141.44;1712755;83;21122;-71
2022/03/22 09:30:24;;;;;;;25.82;12.82;;;;;;;23.88;18.84;102150.48;1717654;82;21163;-69
2022/03/22 09:32:51;;;;;;;31.17;11.95;;;;;;;23.82;18.53;102150.85;1742551;82;21065;-71
2022/03/22 09:35:21;;;;;;;18.60;9.00;;;;;;;23.81;18.34;102151.80;1742505;82;21036;-71
2022/03/22 09:37:50;;;;;;;16.20;8.13;;;;;;;23.73;17.47;102146.00;1717614;82;21568;-70
2022/03/22 09:40:19;;;;;;;19.60;8.10;;;;;;;23.44;17.75;102137.84;1742733;82;21106;-69
2022/03/22 09:42:46;;;;;;;16.60;7.85;;;;;;;23.32;18.18;102142.13;1742437;82;21100;-69
2022/03/22 09:45:15;;;;;;;17.82;7.08;;;;;;;23.36;17.70;102142.34;1742743;82;21042;-68
2022/03/22 09:47:45;;;;;;;14.10;7.00;;;;;;;23.27;17.73;102146.91;1742703;82;21085;-69
2022/03/22 09:50:14;;;;;;;13.70;7.42;;;;;;;23.32;17.93;102135.89;1725345;82;21075;-69
2022/03/22 09:52:42;;;;;;;17.52;8.88;;;;;;;23.62;17.84;102134.53;1713246;82;21059;-70
2022/03/22 09:55:12;;;;;;;14.87;7.95;;;;;;;23.68;17.96;102137.34;1712997;82;21081;-69
2022/03/22 09:57:38;;;;;;;16.57;8.88;;;;;;;23.71;18.18;102137.16;1713013;82;21578;-69
2022/03/22 10:00:07;;;;;;;19.87;9.63;;;;;;;24.10;17.81;102139.24;1713139;83;21050;-69
2022/03/22 10:02:35;;;;;;;20.72;10.18;;;;;;;24.23;18.08;102131.28;1713146;82;21007;-70
2022/03/22 10:05:03;;;;;;;15.48;8.83;;;;;;;24.42;17.53;102129.13;1713288;82;21005;-69
2022/03/22 10:07:31;;;;;;;15.75;8.73;;;;;;;24.40;17.87;102127.02;1712946;82;21198;-71
2022/03/22 10:10:02;;;;;;;17.05;8.00;;;;;;;24.33;17.61;102124.33;1713198;82;21127;-69
2022/03/22 10:12:35;;;;;;;16.10;6.70;;;;;;;24.01;17.74;102124.52;1714370;82;21048;-68
2022/03/22 10:15:16;;;;;;;18.82;7.35;;;;;;;23.54;16.59;102117.53;1713130;82;21099;-69
2022/03/22 10:17:46;;;;;;;11.78;6.33;;;;;;;23.17;17.77;102117.03;1713054;82;21004;-69
2022/03/22 10:20:23;;;;;;;16.07;6.73;;;;;;;22.85;17.69;102120.20;1713369;82;20993;-68
2022/03/22 10:23:00;;;;;;;10.28;5.78;;;;;;;22.95;17.83;102114.68;1713184;83;21087;-70
2022/03/22 10:25:30;;;;;;;14.13;5.92;;;;;;;23.14;16.77;102117.19;1713410;83;21056;-69
2022/03/22 10:27:58;;;;;;;14.33;6.83;;;;;;;23.03;16.76;102106.23;1713294;82;21051;-69
2022/03/22 10:30:25;;;;;;;15.63;5.22;;;;;;;22.74;17.78;102102.01;1713557;82;21041;-69
2022/03/22 10:32:52;;;;;;;11.35;5.35;;;;;;;22.43;17.34;102107.37;1712746;83;21256;-68
2022/03/22 10:35:26;;;;;;;12.13;6.33;;;;;;;22.19;17.56;102101.03;1713029;83;21119;-68
2022/03/22 10:38:07;;;;;;;12.70;6.25;;;;;;;22.00;18.03;102102.52;1712969;82;21110;-68
2022/03/22 10:40:44;;;;;;;16.23;5.30;;;;;;;21.98;18.11;102096.36;1713191;83;21031;-69
2022/03/22 10:43:19;;;;;;;12.10;5.65;;;;;;;22.38;18.09;102095.09;1712962;83;21082;-70
2022/03/22 10:45:49;;;;;;;11.60;5.08;;;;;;;22.77;17.60;102087.53;1713287;82;21108;-69
2022/03/22 10:48:28;;;;;;;16.75;5.25;;;;;;;23.11;17.66;102082.44;1713016;82;21083;-70
2022/03/22 10:50:59;;;;;;;9.33;4.50;;;;;;;23.55;16.75;102089.66;1739554;82;21157;-69
2022/03/22 10:53:29;;;;;;;7.28;3.67;;;;;;;23.83;17.24;102083.97;1742719;82;21006;-67
2022/03/22 10:55:57;;;;;;;10.28;3.92;;;;;;;24.07;16.42;102081.09;1742476;81;21068;-69
2022/03/22 10:58:26;;;;;;;9.15;4.20;;;;;;;24.18;15.88;102071.45;1742910;82;21114;-68
2022/03/22 11:00:54;;;;;;;15.50;4.37;;;;;;;23.98;16.04;102072.25;1742532;82;21089;-69
2022/03/22 11:03:21;;;;;;;8.73;3.25;;;;;;;23.94;16.08;102068.50;1742861;82;21043;-68
2022/03/22 11:05:53;;;;;;;6.03;2.92;;;;;;;23.71;15.69;102075.28;1742544;82;21089;-68
2022/03/22 11:08:23;;;;;;;8.93;3.52;;;;;;;23.57;15.19;102067.58;1742762;82;21011;-70
2022/03/22 11:10:54;;;;;;;9.08;3.47;;;;;;;23.70;15.74;102066.84;1742448;82;21224;-68
2022/03/22 11:13:22;;;;;;;;;;;;;;;23.80;15.74;102056.78;1745344;82;21029;-69
2022/03/22 11:15:49;;;;;;;6.87;2.45;;;;;;;23.61;15.40;102059.72;1742511;82;20493;-68
2022/03/22 11:18:20;;;;;;;6.92;2.10;;;;;;;23.30;15.52;102051.78;1742317;82;21037;-69
2022/03/22 11:20:53;;;;;;;5.87;2.55;;;;;;;23.06;14.70;102049.61;1747577;82;22155;-68
2022/03/22 11:23:24;;;;;;;7.47;2.42;;;;;;;23.13;15.26;102042.91;1750474;82;21049;-68
2022/03/22 11:25:52;;;;;;;6.80;2.05;;;;;;;23.39;14.67;102046.70;1714505;83;21681;-70
2022/03/22 11:28:22;;;;;;;4.75;2.08;;;;;;;23.27;14.01;102043.91;1750296;82;21505;-68
2022/03/22 11:30:51;;;;;;;5.47;2.10;;;;;;;22.88;14.06;102036.74;1750782;82;21037;-69
2022/03/22 11:34:20;;;;;;;6.28;2.47;;;;;;;22.55;14.26;102035.55;1814421;79;22499;-69
2022/03/22 11:36:49;;;;;;;6.08;2.40;;;;;;;22.43;14.95;102029.52;1733289;80;21139;-69
2022/03/22 11:42:15;;;;;;;8.45;2.17;;;;;;;22.61;15.00;102032.50;1787636;80;21192;-68
2022/03/22 11:44:39;;;;;;;3.98;2.00;;;;;;;22.56;14.76;102023.84;1787763;80;21063;-68
2022/03/22 11:47:14;;;;;;;;;;;;;;;22.26;14.63;102021.95;1790274;80;21106;-67
2022/03/22 11:50:02;;;;;;;4.55;2.00;;;;;;;21.93;14.50;102022.84;1775975;80;20157;-69
2022/03/22 11:52:41;;;;;;;4.75;2.00;;;;;;;21.60;14.59;102025.52;1712858;81;22115;-69
2022/03/22 11:55:12;;;;;;;7.03;1.98;;;;;;;21.42;14.17;102028.73;1745729;81;21019;-69